Time;durP1;ratioP1;P1;durP2;ratioP2;P2;SDS_P1;SDS_P2;PMS_P1;PMS_P2;Temp;Humidity;BMP_temperature;BMP_pressure;BME280_temperature;BME280_humidity;BME280_pressure;Samples;Min_cycle;Max_cycle;Signal;HPM_P1;HPM_P2
2020/12/31 00:01:12;;;;;;;9.40;4.85;;;3.90;1.00;;;;;;5040035;28;20188;-81
2020/12/31 00:03:55;;;;;;;6.93;3.60;;;4.00;1.00;;;;;;5052870;28;20188;-80
2020/12/31 00:06:21;;;;;;;7.68;3.33;;;4.00;1.00;;;;;;5036499;28;20184;-80
2020/12/31 00:08:55;;;;;;;8.13;3.83;;;4.00;1.00;;;;;;5034260;28;20171;-80
2020/12/31 00:11:37;;;;;;;6.57;4.55;;;3.90;1.00;;;;;;5036967;28;20414;-81
2020/12/31 00:14:10;;;;;;;7.30;3.65;;;3.90;1.00;;;;;;5053060;28;20171;-80
2020/12/31 00:16:35;;;;;;;6.55;3.42;;;3.80;1.00;;;;;;5051728;28;20167;-79
2020/12/31 00:19:13;;;;;;;8.60;4.40;;;3.80;1.00;;;;;;5053750;28;20180;-80
2020/12/31 00:21:38;;;;;;;4.47;3.17;;;3.80;1.00;;;;;;5054218;28;20178;-79
2020/12/31 00:24:19;;;;;;;5.10;4.17;;;3.80;1.00;;;;;;5052558;28;20542;-80
2020/12/31 00:26:49;;;;;;;4.15;2.90;;;3.90;1.00;;;;;;5032394;28;20594;-79
2020/12/31 00:29:31;;;;;;;7.15;4.13;;;3.90;1.00;;;;;;5040583;28;20203;-79
2020/12/31 00:32:13;;;;;;;7.60;3.58;;;3.90;1.00;;;;;;5054000;28;20243;-79
2020/12/31 00:34:49;;;;;;;10.63;3.70;;;3.90;1.00;;;;;;5054240;28;20164;-79
2020/12/31 00:37:19;;;;;;;7.82;4.05;;;3.90;1.00;;;;;;5053560;28;20178;-81
2020/12/31 00:39:49;;;;;;;5.35;3.10;;;4.00;1.00;;;;;;5038321;28;20667;-79
2020/12/31 00:42:25;;;;;;;10.10;4.78;;;4.00;1.00;;;;;;5032954;28;20611;-80
2020/12/31 00:45:36;;;;;;;15.50;4.20;;;4.00;1.00;;;;;;5033815;28;20223;-79
2020/12/31 00:48:02;;;;;;;15.00;4.80;;;3.90;1.00;;;;;;5033615;28;20168;-79
2020/12/31 00:50:37;;;;;;;4.33;3.17;;;4.00;1.00;;;;;;5034089;28;20188;-76
2020/12/31 00:53:03;;;;;;;4.68;2.95;;;3.90;1.00;;;;;;5033884;28;20426;-76
2020/12/31 00:55:28;;;;;;;10.03;3.80;;;3.90;1.00;;;;;;5042309;28;20164;-76
2020/12/31 00:58:01;;;;;;;5.47;3.27;;;3.80;1.00;;;;;;5043551;28;20462;-76
2020/12/31 01:00:37;;;;;;;5.40;3.25;;;3.90;1.00;;;;;;5044491;28;20168;-76
2020/12/31 01:03:06;;;;;;;6.80;3.28;;;3.90;1.00;;;;;;5049505;28;20187;-76
2020/12/31 01:05:31;;;;;;;4.72;2.80;;;3.90;1.00;;;;;;5050844;28;20254;-80
2020/12/31 01:07:57;;;;;;;6.40;3.63;;;3.90;1.00;;;;;;5053383;28;20211;-80
2020/12/31 01:10:31;;;;;;;6.10;2.87;;;3.90;1.00;;;;;;5053208;28;20188;-79
2020/12/31 01:13:01;;;;;;;7.20;3.58;;;3.80;1.00;;;;;;5052399;28;20171;-80
2020/12/31 01:15:31;;;;;;;7.65;3.60;;;3.80;1.00;;;;;;5051767;28;20631;-80
2020/12/31 01:18:01;;;;;;;4.93;3.40;;;3.90;1.00;;;;;;5033257;28;20566;-79
2020/12/31 01:20:27;;;;;;;3.38;3.03;;;3.80;1.00;;;;;;5032624;28;20227;-77
2020/12/31 01:22:53;;;;;;;5.40;3.47;;;3.90;1.00;;;;;;5033161;28;20161;-76
2020/12/31 01:25:19;;;;;;;5.15;3.30;;;3.90;1.00;;;;;;5047741;28;20175;-76
2020/12/31 01:27:45;;;;;;;9.15;3.88;;;;;;;;;;5041557;28;20184;-76
2020/12/31 01:30:13;;;;;;;6.00;3.60;;;3.90;1.00;;;;;;5051178;28;20584;-76
2020/12/31 01:33:00;;;;;;;8.57;3.80;;;3.90;1.00;;;;;;5051037;28;20545;-76
2020/12/31 01:35:43;;;;;;;7.88;2.90;;;3.90;1.00;;;;;;5053458;28;20179;-79
2020/12/31 01:38:19;;;;;;;5.75;3.70;;;3.90;1.00;;;;;;5053441;28;20207;-79
2020/12/31 01:40:48;;;;;;;6.50;3.63;;;3.90;1.00;;;;;;5033357;28;20183;-79
2020/12/31 01:43:25;;;;;;;4.68;3.33;;;3.90;1.00;;;;;;5032008;28;20180;-79
2020/12/31 01:46:01;;;;;;;7.40;3.90;;;4.00;1.00;;;;;;5033155;28;20238;-79
2020/12/31 01:48:27;;;;;;;9.43;4.70;;;4.00;1.00;;;;;;5032959;28;20243;-79
2020/12/31 01:51:01;;;;;;;8.73;3.60;;;4.00;1.00;;;;;;5032184;28;20228;-76
2020/12/31 01:53:27;;;;;;;5.90;3.88;;;4.10;1.00;;;;;;5035833;28;20171;-76
2020/12/31 01:55:53;;;;;;;6.77;4.07;;;4.00;1.00;;;;;;5036704;28;20279;-76
2020/12/31 01:58:19;;;;;;;6.30;3.92;;;4.10;1.00;;;;;;5042534;28;20427;-76
2020/12/31 02:00:46;;;;;;;4.87;3.43;;;4.00;1.00;;;;;;5051169;28;20195;-76
2020/12/31 02:03:12;;;;;;;6.20;3.72;;;4.00;1.00;;;;;;5041224;28;20180;-76
2020/12/31 02:05:44;;;;;;;9.53;4.63;;;4.00;1.00;;;;;;5045864;28;20546;-79
2020/12/31 02:08:10;;;;;;;11.23;3.00;;;4.00;1.00;;;;;;5036227;28;20239;-79
2020/12/31 02:10:36;;;;;;;5.33;3.67;;;3.90;1.00;;;;;;5045321;28;20710;-79
2020/12/31 02:13:48;;;;;;;8.43;3.80;;;4.00;1.00;;;;;;5055913;28;20230;-79
2020/12/31 02:16:18;;;;;;;6.57;3.90;;;4.00;1.00;;;;;;5054786;28;20163;-79
2020/12/31 02:22:25;;;;;;;9.73;4.32;;;4.00;1.00;;;;;;5056540;28;20266;-76
2020/12/31 02:25:01;;;;;;;11.45;4.15;;;3.90;1.00;;;;;;5056352;28;20183;-76
2020/12/31 02:27:31;;;;;;;6.65;3.53;;;3.90;1.00;;;;;;5050055;28;20234;-75
2020/12/31 02:30:01;;;;;;;9.43;4.07;;;4.00;1.00;;;;;;5046468;28;20226;-76
2020/12/31 02:32:27;;;;;;;4.85;3.50;;;3.90;1.00;;;;;;5056165;28;20658;-76
2020/12/31 02:35:18;;;;;;;10.70;4.07;;;3.90;1.00;;;;;;5055916;28;20275;-76
2020/12/31 02:37:49;;;;;;;7.20;3.67;;;3.90;1.00;;;;;;5055364;28;20176;-76
2020/12/31 02:40:19;;;;;;;10.30;4.18;;;3.90;1.00;;;;;;5055868;28;20500;-76
2020/12/31 02:42:49;;;;;;;7.63;4.10;;;3.90;1.00;;;;;;5050232;28;20538;-76
2020/12/31 02:45:19;;;;;;;7.63;3.78;;;3.90;1.00;;;;;;5036110;28;20219;-76
2020/12/31 02:47:49;;;;;;;5.45;3.50;;;3.90;1.00;;;;;;5036135;28;20226;-76
2020/12/31 02:50:15;;;;;;;7.28;4.15;;;3.80;1.00;;;;;;5036119;28;20288;-76
2020/12/31 02:53:00;;;;;;;12.33;4.67;;;3.80;1.00;;;;;;5036075;28;20236;-79
2020/12/31 02:55:55;;;;;;;6.25;4.00;;;3.80;1.00;;;;;;5049295;28;20179;-79
2020/12/31 02:58:31;;;;;;;5.35;3.35;;;3.80;1.00;;;;;;5043862;28;20257;-79
2020/12/31 03:01:48;;;;;;;8.13;3.20;;;3.80;1.00;;;;;;5035439;28;20192;-80
2020/12/31 03:04:19;;;;;;;7.07;3.25;;;3.70;1.00;;;;;;5035331;28;20172;-79
2020/12/31 03:07:18;;;;;;;5.50;3.33;;;3.70;1.00;;;;;;5047211;28;20520;-79
2020/12/31 03:09:49;;;;;;;6.45;4.03;;;3.70;1.00;;;;;;5053943;28;20661;-80
2020/12/31 03:12:48;;;;;;;9.02;3.88;;;3.70;1.00;;;;;;5048311;28;20215;-79
2020/12/31 03:15:18;;;;;;;10.60;4.20;;;3.70;1.00;;;;;;5051970;28;20225;-80
2020/12/31 03:17:50;;;;;;;8.32;4.28;;;3.70;1.00;;;;;;5053871;28;20179;-79
2020/12/31 03:20:16;;;;;;;5.60;3.70;;;3.70;1.00;;;;;;5055201;28;20160;-80
2020/12/31 03:22:49;;;;;;;10.30;4.60;;;3.70;1.00;;;;;;5054092;28;20229;-76
2020/12/31 03:25:19;;;;;;;9.57;4.35;;;3.80;1.00;;;;;;5055197;28;20176;-76
2020/12/31 03:27:45;;;;;;;7.68;3.92;;;3.80;1.00;;;;;;5052253;28;20163;-76
2020/12/31 03:30:14;;;;;;;7.60;4.10;;;3.80;1.00;;;;;;5048817;28;20191;-76
2020/12/31 03:32:49;;;;;;;13.15;5.03;;;3.80;1.00;;;;;;5055218;28;20515;-76
2020/12/31 03:35:14;;;;;;;6.20;3.40;;;3.80;1.00;;;;;;5054866;28;20171;-76
2020/12/31 03:37:49;;;;;;;8.50;4.13;;;3.90;1.00;;;;;;5045604;28;20184;-76
2020/12/31 03:40:19;;;;;;;7.95;3.50;;;3.80;1.00;;;;;;5049421;28;20262;-76
2020/12/31 03:42:46;;;;;;;9.60;4.95;;;3.80;1.00;;;;;;5054624;28;20172;-76
2020/12/31 03:45:19;;;;;;;8.82;4.53;;;3.80;1.00;;;;;;5055268;28;20194;-76
2020/12/31 03:47:49;;;;;;;7.10;4.38;;;3.80;1.00;;;;;;5055109;28;20630;-77
2020/12/31 03:50:14;;;;;;;9.45;4.20;;;3.80;1.00;;;;;;5054851;28;20206;-76
2020/12/31 03:52:49;;;;;;;6.83;4.43;;;3.80;1.00;;;;;;5055004;28;20179;-80
2020/12/31 03:55:32;;;;;;;7.72;4.25;;;3.80;1.00;;;;;;5054222;28;20637;-80
2020/12/31 03:58:13;;;;;;;10.63;4.18;;;3.80;1.00;;;;;;5052498;28;20188;-81
2020/12/31 04:00:49;;;;;;;10.45;4.90;;;3.70;1.00;;;;;;5035813;28;20255;-80
2020/12/31 04:03:19;;;;;;;7.47;4.22;;;3.70;1.00;;;;;;5045868;28;20274;-80
2020/12/31 04:05:49;;;;;;;6.05;3.53;;;3.70;1.00;;;;;;5045195;28;20515;-80
2020/12/31 04:08:19;;;;;;;9.75;3.85;;;3.80;1.00;;;;;;5035152;28;20623;-76
2020/12/31 04:10:49;;;;;;;6.32;4.38;;;3.70;1.00;;;;;;5051795;28;20599;-76
2020/12/31 04:13:19;;;;;;;5.55;3.58;;;3.70;1.00;;;;;;5053033;28;20210;-76
2020/12/31 04:15:49;;;;;;;10.35;4.00;;;3.70;1.00;;;;;;5053653;28;20164;-76
2020/12/31 04:18:19;;;;;;;8.18;3.85;;;3.60;1.00;;;;;;5053816;28;20160;-75
2020/12/31 04:20:49;;;;;;;6.47;3.95;;;3.60;1.00;;;;;;5054331;28;20167;-76
2020/12/31 04:23:19;;;;;;;9.55;4.32;;;3.60;1.00;;;;;;5054660;28;20175;-76
2020/12/31 04:25:50;;;;;;;7.40;3.92;;;3.50;1.00;;;;;;5047242;28;20680;-76
2020/12/31 04:28:19;;;;;;;13.43;4.72;;;3.50;1.00;;;;;;5054202;28;20180;-76
2020/12/31 04:30:49;;;;;;;7.68;3.47;;;3.50;1.00;;;;;;5044389;28;20723;-76
2020/12/31 04:33:19;;;;;;;12.25;4.00;;;3.50;1.00;;;;;;5053114;28;20184;-77
2020/12/31 04:35:49;;;;;;;3.13;2.67;;;3.50;1.00;;;;;;5053422;28;20623;-76
2020/12/31 04:38:14;;;;;;;7.05;3.65;;;3.40;1.00;;;;;;5047677;28;20175;-80
2020/12/31 04:40:44;;;;;;;7.10;3.70;;;3.40;1.00;;;;;;5052922;28;20179;-80
2020/12/31 04:43:10;;;;;;;9.55;4.28;;;3.40;1.00;;;;;;5052697;28;20168;-80
2020/12/31 04:45:38;;;;;;;9.30;4.25;;;3.40;1.00;;;;;;5050010;28;20184;-80
2020/12/31 04:48:17;;;;;;;6.07;3.45;;;3.40;1.00;;;;;;5052669;28;20175;-80
2020/12/31 04:50:45;;;;;;;7.55;3.67;;;3.40;1.00;;;;;;5063915;28;20211;-80
2020/12/31 04:53:11;;;;;;;6.00;3.25;;;3.40;1.00;;;;;;5033126;28;20527;-77
2020/12/31 04:55:44;;;;;;;5.90;3.80;;;3.30;1.00;;;;;;5044023;28;20180;-77
2020/12/31 04:58:15;;;;;;;4.18;2.60;;;3.40;1.00;;;;;;5044558;28;20423;-76
2020/12/31 05:00:42;;;;;;;4.85;3.45;;;3.40;1.00;;;;;;5049880;28;20187;-76
2020/12/31 05:03:09;;;;;;;7.05;3.72;;;;;;;;;;5033675;28;20184;-77
2020/12/31 05:05:36;;;;;;;6.90;3.88;;;3.50;1.00;;;;;;5041931;28;20258;-76
2020/12/31 05:08:25;;;;;;;8.70;4.40;;;3.50;1.00;;;;;;5054315;28;20174;-79
2020/12/31 05:10:56;;;;;;;4.82;3.72;;;3.50;1.00;;;;;;5053197;28;20179;-79
2020/12/31 05:13:27;;;;;;;7.95;3.83;;;3.60;1.00;;;;;;5033601;28;20171;-80
2020/12/31 05:16:26;;;;;;;6.90;3.63;;;3.60;1.00;;;;;;5048740;28;20161;-80
2020/12/31 05:18:56;;;;;;;10.02;4.10;;;3.60;1.00;;;;;;5033467;28;20258;-80
2020/12/31 05:21:25;;;;;;;11.82;3.95;;;3.60;1.00;;;;;;5033308;28;20153;-80
2020/12/31 05:24:11;;;;;;;7.47;3.95;;;3.60;1.00;;;;;;5033768;28;20239;-76
2020/12/31 05:26:37;;;;;;;9.23;4.15;;;3.60;1.00;;;;;;5047155;28;20168;-76
2020/12/31 05:29:03;;;;;;;7.13;4.20;;;3.60;1.00;;;;;;5054633;28;20181;-76
2020/12/31 05:31:29;;;;;;;7.57;3.38;;;3.60;1.00;;;;;;5044183;28;20217;-76
2020/12/31 05:33:55;;;;;;;6.90;4.30;;;3.70;1.00;;;;;;5057366;28;20246;-77
2020/12/31 05:36:26;;;;;;;7.45;4.45;;;3.70;1.00;;;;;;5055886;28;20641;-76
2020/12/31 05:39:03;;;;;;;13.13;4.15;;;3.60;1.00;;;;;;5057633;28;20180;-80
2020/12/31 05:41:37;;;;;;;6.38;3.63;;;3.70;1.00;;;;;;5056759;28;20233;-79
2020/12/31 05:44:13;;;;;;;10.65;4.00;;;3.70;1.00;;;;;;5057017;28;20217;-80
2020/12/31 05:46:43;;;;;;;5.53;4.00;;;3.70;1.00;;;;;;5055738;28;20254;-80
2020/12/31 05:49:13;;;;;;;6.22;3.15;;;3.70;1.00;;;;;;5043316;28;20655;-80
2020/12/31 05:51:49;;;;;;;7.75;4.18;;;3.70;1.00;;;;;;5036887;28;20243;-80
2020/12/31 05:54:25;;;;;;;5.57;3.60;;;3.70;1.00;;;;;;5054020;28;20186;-76
2020/12/31 05:57:00;;;;;;;9.63;4.50;;;3.80;1.00;;;;;;5047333;28;20206;-76
2020/12/31 05:59:35;;;;;;;6.63;4.20;;;3.80;1.00;;;;;;5051950;28;20187;-76
2020/12/31 06:02:03;;;;;;;6.32;3.55;;;3.80;1.00;;;;;;5046581;28;20186;-76
2020/12/31 06:04:45;;;;;;;8.00;3.42;;;3.80;1.00;;;;;;5036955;28;20157;-76
2020/12/31 06:07:41;;;;;;;3.85;2.97;;;3.80;1.00;;;;;;5056297;28;20642;-76
2020/12/31 06:10:23;;;;;;;3.95;2.97;;;3.80;1.00;;;;;;5056133;28;20214;-76
2020/12/31 06:13:12;;;;;;;8.05;4.55;;;3.80;1.00;;;;;;5052341;28;20223;-76
2020/12/31 06:16:01;;;;;;;6.25;3.03;;;3.90;1.00;;;;;;5057000;28;20172;-76
2020/12/31 06:18:36;;;;;;;4.75;3.50;;;3.80;1.00;;;;;;5055425;28;20319;-76
2020/12/31 06:21:14;;;;;;;3.97;2.78;;;3.90;1.00;;;;;;5056006;28;20251;-76
2020/12/31 06:23:40;;;;;;;3.97;3.05;;;3.90;1.00;;;;;;5056642;28;20205;-76
2020/12/31 06:26:16;;;;;;;4.78;3.20;;;3.90;1.00;;;;;;5052870;28;20678;-75
2020/12/31 06:28:46;;;;;;;7.93;3.70;;;4.00;1.00;;;;;;5054726;28;20239;-74
2020/12/31 06:31:12;;;;;;;7.78;3.42;;;4.00;1.00;;;;;;5049560;28;20208;-75
2020/12/31 06:33:50;;;;;;;6.05;3.35;;;4.00;1.00;;;;;;5044864;28;20191;-76
2020/12/31 06:36:16;;;;;;;6.00;3.45;;;4.00;1.00;;;;;;5055437;28;20221;-75
2020/12/31 06:38:48;;;;;;;8.75;2.60;;;4.00;1.00;;;;;;5051511;28;20512;-74
2020/12/31 06:41:33;;;;;;;7.53;3.15;;;4.00;1.00;;;;;;5054027;28;20176;-75
2020/12/31 06:44:09;;;;;;;5.00;3.80;;;3.90;1.00;;;;;;5055055;28;20152;-75
2020/12/31 06:46:45;;;;;;;7.43;3.20;;;3.90;1.00;;;;;;5055458;28;20223;-74
2020/12/31 06:49:15;;;;;;;8.02;4.03;;;3.90;1.00;;;;;;5055265;28;20720;-75
2020/12/31 06:51:41;;;;;;;5.78;3.47;;;3.90;1.00;;;;;;5055968;28;20164;-75
2020/12/31 06:54:07;;;;;;;6.20;3.57;;;4.00;1.00;;;;;;5056039;28;20521;-79
2020/12/31 06:56:49;;;;;;;6.30;3.55;;;3.90;1.00;;;;;;5053278;28;20453;-80
2020/12/31 06:59:35;;;;;;;5.25;3.38;;;4.00;1.00;;;;;;5054048;28;20184;-80
2020/12/31 07:02:22;;;;;;;4.13;3.00;;;4.00;1.00;;;;;;5043528;28;20181;-80
2020/12/31 07:04:55;;;;;;;6.55;3.30;;;4.00;1.00;;;;;;5035744;28;20176;-81
2020/12/31 07:07:31;;;;;;;6.03;3.47;;;3.90;1.00;;;;;;5035688;28;20196;-80
2020/12/31 07:10:02;;;;;;;6.68;3.50;;;4.00;1.00;;;;;;5035588;28;20270;-80
2020/12/31 07:12:35;;;;;;;3.58;2.88;;;4.00;1.00;;;;;;5035820;28;20674;-79
2020/12/31 07:15:15;;;;;;;4.32;2.58;;;4.00;1.00;;;;;;5035332;28;20516;-80
2020/12/31 07:17:51;;;;;;;4.38;2.90;;;4.00;1.00;;;;;;5035652;28;20159;-80
2020/12/31 07:20:19;;;;;;;4.07;3.00;;;4.10;1.00;;;;;;5033965;28;20263;-80
2020/12/31 07:22:50;;;;;;;10.07;3.30;;;4.10;1.00;;;;;;5044323;28;20163;-86
2020/12/31 07:25:17;;;;;;;2.65;2.42;;;4.10;1.00;;;;;;5056132;28;20517;-80
2020/12/31 07:27:45;;;;;;;3.00;2.58;;;4.20;1.00;;;;;;5055035;28;20180;-81
2020/12/31 07:30:21;;;;;;;5.63;3.15;;;4.20;1.00;;;;;;5053711;28;20278;-79
2020/12/31 07:32:58;;;;;;;4.47;2.75;;;4.20;1.00;;;;;;5051735;28;20183;-80
2020/12/31 07:35:51;;;;;;;4.00;2.50;;;4.30;1.00;;;;;;5037306;28;20646;-79
2020/12/31 07:38:53;;;;;;;4.93;2.38;;;4.30;1.00;;;;;;5035412;28;20172;-79
2020/12/31 07:41:19;;;;;;;3.72;2.28;;;4.30;1.00;;;;;;5035148;28;20638;-79
2020/12/31 07:43:49;;;;;;;2.33;1.87;;;4.30;1.00;;;;;;5034720;28;20175;-79
2020/12/31 07:46:38;;;;;;;3.88;2.75;;;4.30;1.00;;;;;;5048546;28;20438;-79
2020/12/31 07:49:10;;;;;;;3.65;2.03;;;4.30;1.00;;;;;;5053191;28;20581;-79
2020/12/31 07:51:49;;;;;;;3.53;1.98;;;4.20;1.00;;;;;;5054465;28;20498;-81
2020/12/31 07:54:20;;;;;;;3.10;2.33;;;4.30;1.00;;;;;;5054515;28;20168;-79
2020/12/31 07:56:47;;;;;;;2.90;2.08;;;4.30;1.00;;;;;;5052769;28;20266;-80
2020/12/31 07:59:22;;;;;;;3.97;2.60;;;4.30;1.00;;;;;;5039007;28;20264;-79
2020/12/31 08:01:49;;;;;;;3.28;2.40;;;4.30;1.00;;;;;;5039063;28;20175;-79
2020/12/31 08:04:26;;;;;;;2.65;2.20;;;4.30;1.00;;;;;;5034406;28;20239;-79
2020/12/31 08:06:52;;;;;;;2.78;2.22;;;;;;;;;;5049661;28;20646;-79
2020/12/31 08:09:31;;;;;;;2.33;2.13;;;4.40;1.00;;;;;;5042759;28;20292;-79
2020/12/31 08:11:57;;;;;;;3.15;1.83;;;4.40;1.00;;;;;;5045775;28;20206;-82
2020/12/31 08:14:26;;;;;;;3.83;2.20;;;4.50;1.00;;;;;;5053667;28;20251;-80
2020/12/31 08:16:59;;;;;;;3.95;2.10;;;4.50;1.00;;;;;;5053720;28;20199;-79
2020/12/31 08:19:26;;;;;;;2.97;1.98;;;4.50;1.00;;;;;;5047641;28;20206;-79
2020/12/31 08:21:58;;;;;;;2.38;2.10;;;4.60;1.00;;;;;;5053917;28;20165;-79
2020/12/31 08:24:25;;;;;;;3.03;1.92;;;4.60;1.00;;;;;;5052489;28;20202;-78
2020/12/31 08:27:01;;;;;;;2.22;2.05;;;4.50;1.00;;;;;;5051906;28;20217;-75
2020/12/31 08:29:32;;;;;;;8.13;1.98;;;4.60;1.00;;;;;;5032391;28;20188;-75
2020/12/31 08:32:01;;;;;;;1.50;1.40;;;4.60;1.00;;;;;;5041574;28;20666;-75
2020/12/31 08:34:37;;;;;;;3.20;2.00;;;4.60;1.00;;;;;;5042088;28;20723;-75
2020/12/31 08:37:04;;;;;;;1.65;1.45;;;4.60;1.00;;;;;;5033600;28;20172;-75
2020/12/31 08:39:30;;;;;;;3.83;2.10;;;4.50;1.00;;;;;;5044790;28;20279;-75
2020/12/31 08:41:59;;;;;;;1.70;1.50;;;4.60;1.00;;;;;;5053765;28;20254;-75
2020/12/31 08:44:26;;;;;;;3.65;1.80;;;4.60;1.00;;;;;;5053532;28;20402;-75
2020/12/31 08:47:01;;;;;;;3.15;2.28;;;4.60;1.00;;;;;;5053682;28;20196;-75
2020/12/31 08:49:31;;;;;;;2.83;1.60;;;4.70;1.00;;;;;;5046747;28;20638;-75
2020/12/31 08:52:08;;;;;;;2.13;1.52;;;4.70;1.00;;;;;;5045280;28;20266;-75
2020/12/31 08:54:34;;;;;;;3.28;1.60;;;4.70;1.00;;;;;;5053847;28;20201;-75
2020/12/31 08:57:14;;;;;;;2.63;1.90;;;4.80;1.00;;;;;;5049852;28;20175;-75
2020/12/31 08:59:55;;;;;;;2.75;1.50;;;4.80;1.00;;;;;;5044668;28;20197;-75
2020/12/31 09:02:25;;;;;;;3.38;1.90;;;4.80;1.00;;;;;;5039915;28;20663;-75
2020/12/31 09:05:10;;;;;;;3.47;1.90;;;4.90;1.00;;;;;;5033605;28;20244;-75
2020/12/31 09:07:36;;;;;;;3.20;2.00;;;4.90;1.00;;;;;;5048730;28;20532;-75
2020/12/31 09:10:11;;;;;;;2.20;2.00;;;5.00;1.00;;;;;;5033475;28;20196;-75
2020/12/31 09:12:37;;;;;;;2.53;1.90;;;5.10;1.00;;;;;;5046240;28;20185;-75
2020/12/31 09:15:20;;;;;;;3.30;1.87;;;5.30;1.00;;;;;;5052045;28;20699;-81
2020/12/31 09:17:49;;;;;;;2.15;1.90;;;5.30;1.00;;;;;;5050606;28;20588;-75
2020/12/31 09:20:28;;;;;;;2.47;2.20;;;5.50;1.00;;;;;;5052051;28;20519;-75
2020/12/31 09:23:07;;;;;;;2.33;2.10;;;5.60;1.00;;;;;;5053759;28;20160;-76
2020/12/31 09:25:32;;;;;;;2.35;2.10;;;5.60;1.00;;;;;;5053745;28;20159;-76
2020/12/31 09:27:58;;;;;;;3.37;2.10;;;5.80;1.00;;;;;;5045691;28;20279;-75
2020/12/31 09:30:31;;;;;;;2.93;2.40;;;5.90;1.00;;;;;;5053141;28;20194;-75
2020/12/31 09:33:07;;;;;;;3.90;1.90;;;5.90;1.00;;;;;;5053496;28;20243;-75
2020/12/31 09:35:37;;;;;;;3.67;2.50;;;6.00;1.00;;;;;;5039374;28;20436;-75
2020/12/31 09:38:07;;;;;;;3.10;2.00;;;6.10;1.00;;;;;;5046377;28;20517;-75
2020/12/31 09:40:49;;;;;;;2.40;2.10;;;6.00;1.00;;;;;;5053537;28;20406;-80
2020/12/31 09:43:19;;;;;;;4.47;2.00;;;6.00;1.00;;;;;;5052934;28;20504;-80
2020/12/31 09:45:49;;;;;;;3.20;1.87;;;5.90;1.00;;;;;;5052911;28;20430;-80
2020/12/31 09:48:19;;;;;;;4.00;2.58;;;5.60;1.00;;;;;;5046082;28;20433;-78
2020/12/31 09:50:49;;;;;;;5.90;2.53;;;5.60;1.00;;;;;;5041213;28;20279;-78
2020/12/31 09:53:50;;;;;;;2.23;1.87;;;5.60;1.00;;;;;;5052728;28;20642;-78
2020/12/31 09:56:19;;;;;;;6.00;2.30;;;5.70;1.00;;;;;;5053295;28;20387;-74
2020/12/31 09:58:45;;;;;;;3.70;2.17;;;5.70;1.00;;;;;;5040194;28;20434;-73
2020/12/31 10:01:11;;;;;;;4.93;2.47;;;5.50;1.00;;;;;;5049575;28;20415;-74
2020/12/31 10:03:37;;;;;;;2.80;2.60;;;5.50;1.00;;;;;;5032979;28;20188;-74
2020/12/31 10:06:05;;;;;;;5.93;2.60;;;5.60;1.00;;;;;;5041113;28;20418;-74
2020/12/31 10:08:37;;;;;;;7.75;2.03;;;5.60;1.00;;;;;;5052437;28;20164;-74
2020/12/31 10:11:13;;;;;;;7.18;2.80;;;5.60;1.00;;;;;;5053356;28;20211;-78
2020/12/31 10:13:49;;;;;;;2.67;2.33;;;5.50;1.00;;;;;;5052703;28;20666;-78
2020/12/31 10:16:19;;;;;;;2.43;1.80;;;5.40;1.00;;;;;;5055530;28;20686;-79
2020/12/31 10:19:19;;;;;;;6.03;2.50;;;5.30;1.00;;;;;;5056358;28;20540;-78
2020/12/31 10:22:19;;;;;;;2.45;1.77;;;5.10;1.00;;;;;;5041345;28;20290;-78
2020/12/31 10:24:50;;;;;;;4.72;1.55;;;5.10;1.00;;;;;;5051327;28;20249;-78
2020/12/31 10:27:19;;;;;;;6.30;1.58;;;5.10;1.00;;;;;;5056374;28;20160;-78
2020/12/31 10:30:07;;;;;;;5.47;1.60;;;5.00;1.00;;;;;;5056253;28;20184;-78
2020/12/31 10:32:43;;;;;;;1.70;1.60;;;5.00;1.00;;;;;;5055953;28;20179;-78
2020/12/31 10:35:31;;;;;;;3.90;2.05;;;4.80;1.00;;;;;;5051391;28;20643;-78
2020/12/31 10:37:57;;;;;;;1.90;1.80;;;4.90;1.00;;;;;;5040880;28;20210;-78
2020/12/31 10:40:37;;;;;;;3.00;2.23;;;4.90;1.00;;;;;;5051805;28;20176;-78
2020/12/31 10:43:03;;;;;;;1.90;1.67;;;4.90;1.00;;;;;;5055111;28;20977;-74
2020/12/31 10:45:29;;;;;;;1.60;1.50;;;4.90;1.00;;;;;;5055852;28;20199;-74
2020/12/31 10:47:55;;;;;;;7.10;2.47;;;;;;;;;;5053664;28;20190;-74
2020/12/31 10:50:26;;;;;;;3.83;1.73;;;5.00;1.00;;;;;;5050091;28;20196;-74
2020/12/31 10:52:55;;;;;;;4.03;2.05;;;4.80;1.00;;;;;;5035831;28;20149;-74
2020/12/31 10:55:25;;;;;;;2.30;2.05;;;4.90;1.00;;;;;;5035949;28;20156;-74
2020/12/31 10:57:51;;;;;;;2.20;1.98;;;4.80;1.00;;;;;;5039453;28;20184;-74
2020/12/31 11:00:19;;;;;;;2.20;1.63;;;4.80;1.00;;;;;;5041804;28;20206;-74
2020/12/31 11:02:49;;;;;;;2.92;1.95;;;4.80;1.00;;;;;;5045258;28;20700;-74
2020/12/31 11:05:19;;;;;;;2.13;2.00;;;4.80;1.00;;;;;;5055159;28;20168;-74
2020/12/31 11:07:45;;;;;;;8.15;2.30;;;;;;;;;;5054751;28;20255;-74
2020/12/31 11:10:19;;;;;;;4.30;2.00;;;4.90;1.00;;;;;;5055132;28;20274;-73
2020/12/31 11:12:45;;;;;;;15.27;2.65;;;;;;;;;;5055174;28;20401;-78
2020/12/31 11:15:13;;;;;;;3.53;2.45;;;4.90;1.00;;;;;;5054928;28;20162;-78
2020/12/31 11:17:43;;;;;;;5.18;2.50;;;4.80;1.00;;;;;;5054804;28;20643;-78
2020/12/31 11:20:09;;;;;;;5.93;2.72;;;4.80;1.00;;;;;;5055218;28;20164;-78
2020/12/31 11:22:35;;;;;;;3.87;2.70;;;;;;;;;;5054893;28;20218;-78
2020/12/31 11:25:01;;;;;;;3.08;2.40;;;4.80;1.00;;;;;;5054910;28;20160;-78
2020/12/31 11:27:31;;;;;;;6.13;2.40;;;4.80;1.00;;;;;;5054924;28;20164;-74
2020/12/31 11:29:57;;;;;;;2.78;2.35;;;;;;;;;;5054905;28;20241;-74
2020/12/31 11:32:23;;;;;;;5.75;2.55;;;;;;;;;;5054525;28;20650;-74
2020/12/31 11:34:49;;;;;;;3.20;2.10;;;;;;;;;;5053159;28;20180;-73
2020/12/31 11:37:19;;;;;;;2.93;2.23;;;4.80;1.00;;;;;;5044471;28;20188;-74
2020/12/31 11:39:55;;;;;;;2.63;2.08;;;4.70;1.00;;;;;;5036149;28;20427;-74
2020/12/31 11:42:21;;;;;;;3.17;2.05;;;4.70;1.00;;;;;;5051059;28;20188;-75
2020/12/31 11:44:47;;;;;;;2.40;2.20;;;4.70;1.00;;;;;;5054774;28;20195;-74
2020/12/31 11:47:13;;;;;;;2.78;2.58;;;4.70;1.00;;;;;;5054465;28;20176;-74
2020/12/31 11:49:49;;;;;;;5.90;2.23;;;4.70;1.00;;;;;;5054355;28;20199;-74
2020/12/31 11:52:15;;;;;;;2.45;1.60;;;4.70;1.00;;;;;;5039589;28;20164;-74
2020/12/31 11:54:41;;;;;;;2.77;2.13;;;;;;;;;;5054942;28;20213;-74
2020/12/31 11:57:07;;;;;;;3.23;1.50;;;4.70;1.00;;;;;;5042935;28;20569;-74
2020/12/31 11:59:49;;;;;;;3.40;2.10;;;4.70;1.00;;;;;;5041035;28;20425;-76
2020/12/31 12:02:19;;;;;;;2.70;1.75;;;4.70;1.00;;;;;;5048161;28;20660;-76
2020/12/31 12:04:49;;;;;;;1.30;1.20;;;4.60;1.00;;;;;;5034405;28;20562;-76
2020/12/31 12:07:19;;;;;;;2.80;1.50;;;4.70;1.00;;;;;;5046272;28;20525;-75
2020/12/31 12:09:46;;;;;;;2.67;1.40;;;4.80;1.00;;;;;;5042158;28;20184;-74
2020/12/31 12:12:13;;;;;;;2.00;1.27;;;4.80;1.00;;;;;;5033696;28;20168;-79
2020/12/31 12:14:43;;;;;;;1.08;1.02;;;4.70;1.00;;;;;;5034255;28;20616;-78
2020/12/31 12:17:13;;;;;;;1.50;1.40;;;4.70;1.00;;;;;;5034332;28;20168;-78
2020/12/31 12:19:49;;;;;;;1.65;1.30;;;4.60;1.00;;;;;;5034112;28;20636;-79
2020/12/31 12:22:19;;;;;;;1.83;1.73;;;4.60;1.00;;;;;;5034120;28;20191;-79
2020/12/31 12:25:19;;;;;;;1.25;1.15;;;4.60;1.00;;;;;;5034302;28;20176;-78
2020/12/31 12:27:45;;;;;;;1.30;1.20;;;4.60;1.00;;;;;;5034284;28;20164;-74
2020/12/31 12:30:11;;;;;;;2.23;1.23;;;4.70;1.00;;;;;;5034114;28;20191;-74
2020/12/31 12:32:38;;;;;;;2.78;1.90;;;4.70;1.00;;;;;;5034148;28;20638;-73
2020/12/31 12:35:09;;;;;;;3.35;2.03;;;4.70;1.00;;;;;;5038985;28;20183;-73
2020/12/31 12:37:35;;;;;;;3.05;1.70;;;4.80;1.00;;;;;;5046693;28;20691;-74
2020/12/31 12:40:04;;;;;;;1.67;1.45;;;4.70;1.00;;;;;;5036623;28;20196;-74
2020/12/31 12:42:44;;;;;;;1.75;1.48;;;4.70;1.00;;;;;;5041052;28;20184;-75
2020/12/31 12:45:10;;;;;;;6.85;1.90;;;4.70;1.00;;;;;;5052967;28;20226;-74
2020/12/31 12:47:43;;;;;;;3.92;1.92;;;4.70;1.00;;;;;;5035088;28;20198;-74
2020/12/31 12:50:09;;;;;;;2.22;1.90;;;4.70;1.00;;;;;;5033545;28;20196;-74
2020/12/31 12:52:49;;;;;;;1.52;1.42;;;4.70;1.00;;;;;;5033803;28;20513;-74
2020/12/31 12:55:15;;;;;;;1.80;1.70;;;4.70;1.00;;;;;;5032842;28;20263;-73
2020/12/31 12:57:49;;;;;;;5.93;2.20;;;4.60;1.00;;;;;;5036040;28;20236;-79
2020/12/31 13:00:20;;;;;;;1.88;1.77;;;4.60;1.00;;;;;;5052152;28;20179;-79
2020/12/31 13:02:58;;;;;;;3.13;1.90;;;4.60;1.00;;;;;;5047001;28;20245;-79
2020/12/31 13:05:25;;;;;;;11.13;2.40;;;4.50;1.00;;;;;;5053008;28;20163;-79
2020/12/31 13:08:21;;;;;;;4.90;2.10;;;4.60;1.00;;;;;;5033954;28;20624;-80
2020/12/31 13:10:49;;;;;;;2.45;2.20;;;4.60;1.00;;;;;;5053261;28;20214;-79
2020/12/31 13:13:19;;;;;;;3.63;2.40;;;4.60;1.00;;;;;;5053845;28;20164;-76
2020/12/31 13:15:49;;;;;;;2.33;2.13;;;4.60;1.00;;;;;;5053669;28;20183;-77
2020/12/31 13:18:26;;;;;;;3.42;2.28;;;4.60;1.00;;;;;;5053407;28;20214;-76
2020/12/31 13:20:52;;;;;;;4.40;2.90;;;4.60;1.00;;;;;;5053403;28;20187;-76
2020/12/31 13:23:17;;;;;;;3.03;2.33;;;4.60;1.00;;;;;;5053323;28;20205;-76
2020/12/31 13:25:43;;;;;;;2.93;2.27;;;4.70;1.00;;;;;;5053357;28;20160;-76
2020/12/31 13:28:13;;;;;;;3.58;2.50;;;4.60;1.00;;;;;;5039127;28;20214;-76
2020/12/31 13:30:44;;;;;;;5.80;2.47;;;;;;;;;;5031913;28;20204;-76
2020/12/31 13:33:15;;;;;;;4.05;2.65;;;4.70;1.00;;;;;;5033441;28;20551;-77
2020/12/31 13:35:42;;;;;;;2.15;1.98;;;;;;;;;;5043523;28;20187;-76
2020/12/31 13:38:11;;;;;;;4.28;2.60;;;;;;;;;;5040988;28;20172;-76
2020/12/31 13:40:37;;;;;;;4.35;2.28;;;4.80;1.00;;;;;;5042756;28;20602;-76
2020/12/31 13:43:04;;;;;;;3.58;2.63;;;4.80;1.00;;;;;;5053537;28;20179;-77